createdAt,value
2023-02-13T00:01:27.867Z,-1.12
2023-02-13T00:03:56.666Z,-1.07
2023-02-13T00:06:25.506Z,-1.06
2023-02-13T00:08:57.778Z,-0.99
2023-02-13T00:11:27.569Z,-0.93
2023-02-13T00:13:56.229Z,-0.80
2023-02-13T00:16:24.584Z,-0.56
2023-02-13T00:18:53.279Z,-0.28
2023-02-13T00:21:21.779Z,-0.10
2023-02-13T00:23:50.159Z,0.03
2023-02-13T00:26:19.476Z,0.04
2023-02-13T00:28:49.994Z,0.15
2023-02-13T00:31:22.404Z,0.20
2023-02-13T00:33:51.347Z,0.24
2023-02-13T00:36:23.435Z,0.18
2023-02-13T00:38:53.312Z,0.15
2023-02-13T00:41:23.341Z,0.12
2023-02-13T00:43:54.617Z,0.10
2023-02-13T00:46:23.997Z,0.06
2023-02-13T00:48:52.741Z,0.09
2023-02-13T00:51:21.159Z,0.05
2023-02-13T00:53:49.454Z,-0.05
2023-02-13T00:56:22.053Z,-0.06
2023-02-13T00:58:50.654Z,-0.08
2023-02-13T01:01:20.455Z,-0.03
2023-02-13T01:03:48.896Z,-0.08
2023-02-13T01:06:17.542Z,-0.10
2023-02-13T01:08:46.162Z,-0.08
2023-02-13T01:11:14.764Z,-0.07
2023-02-13T01:13:46.041Z,-0.09
2023-02-13T01:16:16.031Z,-0.15
2023-02-13T01:18:45.838Z,-0.19
2023-02-13T01:21:19.849Z,-0.19
2023-02-13T01:23:48.939Z,-0.18
2023-02-13T01:26:22.390Z,-0.19
2023-02-13T01:28:55.509Z,-0.20
2023-02-13T01:31:24.064Z,-0.17
2023-02-13T01:33:57.016Z,-0.07
2023-02-13T01:36:27.751Z,-0.09
2023-02-13T01:38:57.981Z,-0.11
2023-02-13T01:41:28.714Z,-0.13
2023-02-13T01:44:00.345Z,-0.17
2023-02-13T01:46:38.204Z,-0.17
2023-02-13T01:49:18.673Z,-0.20
2023-02-13T01:51:48.588Z,-0.17
2023-02-13T01:54:20.839Z,-0.16
2023-02-13T01:56:55.170Z,-0.21
2023-02-13T01:59:30.892Z,-0.18
2023-02-13T02:02:00.960Z,-0.17
2023-02-13T02:04:34.797Z,-0.19
2023-02-13T02:07:15.835Z,-0.16
2023-02-13T02:09:46.804Z,-0.24
2023-02-13T02:12:27.089Z,-0.34
2023-02-13T02:15:02.625Z,-0.39
2023-02-13T02:17:34.142Z,-0.40
2023-02-13T02:20:23.583Z,-0.44
2023-02-13T02:23:54.441Z,-0.46
2023-02-13T02:27:15.736Z,-0.45
2023-02-13T02:30:29.024Z,-0.43
2023-02-13T02:33:31.002Z,-0.39
2023-02-13T02:36:22.683Z,-0.42
2023-02-13T02:39:09.675Z,-0.44
2023-02-13T02:41:55.959Z,-0.45
2023-02-13T02:44:42.170Z,-0.57
2023-02-13T02:47:42.184Z,-0.57
2023-02-13T02:50:34.132Z,-0.72
2023-02-13T02:53:22.751Z,-0.75
2023-02-13T02:56:00.165Z,-0.82
2023-02-13T02:58:55.592Z,-0.79
2023-02-13T03:01:51.135Z,-0.84
2023-02-13T03:04:44.070Z,-0.75
2023-02-13T03:07:18.733Z,-0.83
2023-02-13T03:10:10.737Z,-0.88
2023-02-13T03:13:04.689Z,-0.94
2023-02-13T03:15:56.597Z,-0.96
2023-02-13T03:18:42.654Z,-0.97
2023-02-13T03:21:36.508Z,-1.03
2023-02-13T03:24:18.588Z,-1.01
2023-02-13T03:26:57.888Z,-1.03
2023-02-13T03:30:02.653Z,-1.07
2023-02-13T03:32:43.803Z,-1.07
2023-02-13T03:35:53.201Z,-1.06
2023-02-13T03:38:31.448Z,-1.14
2023-02-13T03:41:20.731Z,-1.13
2023-02-13T03:44:05.189Z,-1.20
2023-02-13T03:46:38.655Z,-1.13
2023-02-13T03:49:32.091Z,-1.20
2023-02-13T03:52:08.658Z,-1.24
2023-02-13T03:55:03.382Z,-1.34
2023-02-13T03:57:55.166Z,-1.31
2023-02-13T04:00:28.958Z,-1.31
2023-02-13T04:03:15.671Z,-1.25
2023-02-13T04:05:51.048Z,-1.30
2023-02-13T04:08:19.929Z,-1.29
2023-02-13T04:10:56.106Z,-1.22
2023-02-13T04:13:35.341Z,-1.24
2023-02-13T04:16:12.650Z,-1.19
2023-02-13T04:18:42.366Z,-1.19
2023-02-13T04:21:10.907Z,-1.15
2023-02-13T04:23:39.227Z,-1.16
2023-02-13T04:26:20.210Z,-1.17
2023-02-13T04:28:50.150Z,-1.15
2023-02-13T04:31:18.810Z,-1.15
2023-02-13T04:33:47.497Z,-1.18
2023-02-13T04:36:15.860Z,-1.18
2023-02-13T04:38:45.475Z,-1.16
2023-02-13T04:41:14.222Z,-1.15
2023-02-13T04:43:43.487Z,-1.23
2023-02-13T04:46:13.291Z,-1.30
2023-02-13T04:48:41.725Z,-1.31
2023-02-13T04:51:10.028Z,-1.31
2023-02-13T04:53:38.678Z,-1.25
2023-02-13T04:56:07.685Z,-1.24
2023-02-13T04:58:36.030Z,-1.18
2023-02-13T05:01:04.817Z,-1.19
2023-02-13T05:03:38.202Z,-1.27
2023-02-13T05:06:07.429Z,-1.30
2023-02-13T05:08:36.243Z,-1.23
2023-02-13T05:11:05.007Z,-1.22
2023-02-13T05:13:33.353Z,-1.22
2023-02-13T05:16:02.045Z,-1.24
2023-02-13T05:18:30.649Z,-1.23
2023-02-13T05:21:18.114Z,-1.23
2023-02-13T05:23:46.823Z,-1.19
2023-02-13T05:26:15.463Z,-1.20
2023-02-13T05:29:01.582Z,-1.22
2023-02-13T05:31:30.009Z,-1.25
2023-02-13T05:33:58.352Z,-1.23
2023-02-13T05:36:28.406Z,-1.26
2023-02-13T05:38:56.667Z,-1.31
2023-02-13T05:41:24.999Z,-1.32
2023-02-13T05:43:53.641Z,-1.31
2023-02-13T05:46:22.327Z,-1.39
2023-02-13T05:48:50.933Z,-1.39
2023-02-13T05:51:19.573Z,-1.43
2023-02-13T05:53:49.236Z,-1.40
2023-02-13T05:56:18.060Z,-1.42
2023-02-13T05:58:46.425Z,-1.52
2023-02-13T06:01:15.011Z,-1.49
2023-02-13T06:03:43.342Z,-1.47
2023-02-13T06:06:11.710Z,-1.52
2023-02-13T06:08:40.447Z,-1.56
2023-02-13T06:11:10.724Z,-1.54
2023-02-13T06:13:40.734Z,-1.44
2023-02-13T06:16:09.523Z,-1.47
2023-02-13T06:18:38.980Z,-1.47
2023-02-13T06:21:08.685Z,-1.36
2023-02-13T06:23:37.236Z,-1.40
2023-02-13T06:26:06.411Z,-1.33
2023-02-13T06:28:36.906Z,-1.38
2023-02-13T06:31:05.946Z,-1.37
2023-02-13T06:33:35.128Z,-1.33
2023-02-13T06:36:04.229Z,-1.34
2023-02-13T06:38:32.681Z,-1.35
2023-02-13T06:41:03.162Z,-1.34
2023-02-13T06:43:31.879Z,-1.30
2023-02-13T06:46:05.439Z,-1.36
2023-02-13T06:48:34.283Z,-1.39
2023-02-13T06:51:02.755Z,-1.39
2023-02-13T06:53:32.127Z,-1.37
2023-02-13T06:56:00.474Z,-1.38
2023-02-13T06:58:29.173Z,-1.32
2023-02-13T07:00:57.771Z,-1.39
2023-02-13T07:03:27.717Z,-1.45
2023-02-13T07:05:56.627Z,-1.46
2023-02-13T07:08:25.383Z,-1.40
2023-02-13T07:10:54.020Z,-1.45
2023-02-13T07:13:22.346Z,-1.45
2023-02-13T07:15:51.111Z,-1.44
2023-02-13T07:18:19.484Z,-1.45
2023-02-13T07:20:49.195Z,-1.49
2023-02-13T07:23:17.578Z,-1.45
2023-02-13T07:25:45.891Z,-1.35
2023-02-13T07:28:14.574Z,-1.27
2023-02-13T07:30:42.964Z,-1.27
2023-02-13T07:33:13.518Z,-1.16
2023-02-13T07:35:48.681Z,-1.20
2023-02-13T07:38:17.922Z,-1.23
2023-02-13T07:40:46.643Z,-1.19
2023-02-13T07:43:15.609Z,-1.17
2023-02-13T07:45:43.963Z,-1.15
2023-02-13T07:48:12.626Z,-1.22
2023-02-13T07:50:44.417Z,-1.16
2023-02-13T07:53:14.120Z,-1.15
2023-02-13T07:55:43.185Z,-1.19
2023-02-13T07:58:11.950Z,-1.21
2023-02-13T08:00:40.243Z,-1.21
2023-02-13T08:03:08.627Z,-1.13
2023-02-13T08:05:37.401Z,-1.16
2023-02-13T08:08:06.450Z,-1.05
2023-02-13T08:10:53.499Z,-1.21
2023-02-13T08:13:21.893Z,-1.17
2023-02-13T08:15:50.374Z,-1.09
2023-02-13T08:18:19.973Z,-1.04
2023-02-13T08:20:48.582Z,-0.99
2023-02-13T08:23:16.950Z,-0.81
2023-02-13T08:25:47.763Z,-0.94
2023-02-13T08:28:16.928Z,-0.83
2023-02-13T08:30:45.605Z,-0.78
2023-02-13T08:33:14.220Z,-0.71
2023-02-13T08:35:42.653Z,-0.77
2023-02-13T08:38:11.423Z,-0.85
2023-02-13T08:40:39.732Z,-1.01
2023-02-13T08:43:09.482Z,-0.68
2023-02-13T08:45:38.078Z,-0.63
2023-02-13T08:48:07.563Z,-0.62
2023-02-13T08:50:37.111Z,-0.67
2023-02-13T08:53:06.346Z,-0.74
2023-02-13T08:55:34.981Z,-0.60
2023-02-13T08:58:04.934Z,-0.39
2023-02-13T09:00:34.866Z,-0.14
2023-02-13T09:03:04.163Z,-0.32
2023-02-13T09:05:33.073Z,-0.15
2023-02-13T09:08:03.690Z,-0.02
2023-02-13T09:10:33.658Z,0.04
2023-02-13T09:13:02.556Z,-0.08
2023-02-13T09:15:31.636Z,-0.06
2023-02-13T09:18:01.534Z,-0.07
2023-02-13T09:20:30.181Z,-0.28
2023-02-13T09:22:58.785Z,-0.42
2023-02-13T09:25:27.162Z,-0.44
2023-02-13T09:27:55.486Z,-0.31
2023-02-13T09:30:24.470Z,-0.17
2023-02-13T09:32:54.222Z,-0.22
2023-02-13T09:35:25.117Z,-0.20
2023-02-13T09:37:57.002Z,-0.07
2023-02-13T09:40:35.984Z,-0.17
2023-02-13T09:43:14.758Z,-0.03
2023-02-13T09:45:47.179Z,0.16
2023-02-13T09:48:28.771Z,0.27
2023-02-13T09:50:59.768Z,0.41
2023-02-13T09:53:33.434Z,0.17
2023-02-13T09:56:15.356Z,0.34
2023-02-13T09:58:49.257Z,0.41
2023-02-13T10:01:30.790Z,0.38
2023-02-13T10:04:32.001Z,0.52
2023-02-13T10:07:21.464Z,0.30
2023-02-13T10:10:03.128Z,0.35
2023-02-13T10:12:52.349Z,0.53
2023-02-13T10:15:32.501Z,0.73
2023-02-13T10:18:08.012Z,0.86
2023-02-13T10:20:45.394Z,0.79
2023-02-13T10:23:25.724Z,0.39
2023-02-13T10:25:59.619Z,0.52
2023-02-13T10:28:43.658Z,0.73
2023-02-13T10:31:18.704Z,0.94
2023-02-13T10:33:51.744Z,0.75
2023-02-13T10:36:26.269Z,0.62
2023-02-13T10:39:02.876Z,0.63
2023-02-13T10:41:47.510Z,0.58
2023-02-13T10:44:44.089Z,0.49
2023-02-13T10:47:37.598Z,0.50
2023-02-13T10:50:24.341Z,0.56
2023-02-13T10:53:08.124Z,0.62
2023-02-13T10:56:21.248Z,0.78
2023-02-13T10:59:08.837Z,0.65
2023-02-13T11:01:47.970Z,0.83
2023-02-13T11:04:20.736Z,0.94
2023-02-13T11:06:59.104Z,1.01
2023-02-13T11:09:31.247Z,0.98
2023-02-13T11:12:27.571Z,0.94
2023-02-13T11:14:59.352Z,0.87
2023-02-13T11:17:31.448Z,0.80
2023-02-13T11:20:05.618Z,0.81
2023-02-13T11:22:39.303Z,0.68
2023-02-13T11:25:19.664Z,1.01
2023-02-13T11:27:53.050Z,1.08
2023-02-13T11:30:35.011Z,1.15
2023-02-13T11:33:08.124Z,1.17
2023-02-13T11:35:38.235Z,1.36
2023-02-13T11:38:21.943Z,1.06
2023-02-13T11:40:58.017Z,0.94
2023-02-13T11:43:34.607Z,1.09
2023-02-13T11:46:06.562Z,1.30
2023-02-13T11:48:35.527Z,1.60
2023-02-13T11:51:05.739Z,1.57
2023-02-13T11:53:40.574Z,1.39
2023-02-13T11:56:13.073Z,1.31
2023-02-13T11:58:43.392Z,1.17
2023-02-13T12:01:29.425Z,1.20
2023-02-13T12:04:11.217Z,1.43
2023-02-13T12:06:42.469Z,1.46
2023-02-13T12:09:16.735Z,1.52
2023-02-13T12:11:50.972Z,1.50
2023-02-13T12:14:24.236Z,1.50
2023-02-13T12:16:58.852Z,1.56
2023-02-13T12:19:39.372Z,1.62
2023-02-13T12:22:35.058Z,1.37
2023-02-13T12:25:36.270Z,1.43
2023-02-13T12:28:13.743Z,1.68
2023-02-13T12:31:09.380Z,1.79
2023-02-13T12:34:23.889Z,1.74
2023-02-13T12:37:09.277Z,1.67
2023-02-13T12:39:47.429Z,1.59
2023-02-13T12:42:39.651Z,1.89
2023-02-13T12:45:30.187Z,1.93
2023-02-13T12:48:27.506Z,1.94
2023-02-13T12:51:18.818Z,1.78
2023-02-13T12:54:11.507Z,1.94
2023-02-13T12:57:03.118Z,1.75
2023-02-13T12:59:54.131Z,1.41
2023-02-13T13:02:55.857Z,1.66
2023-02-13T13:05:40.875Z,1.70
2023-02-13T13:08:47.261Z,1.70
2023-02-13T13:11:35.019Z,1.65
2023-02-13T13:14:16.085Z,1.60
2023-02-13T13:16:55.263Z,1.72
2023-02-13T13:19:42.780Z,1.62
2023-02-13T13:22:20.538Z,1.67
2023-02-13T13:25:05.614Z,1.57
2023-02-13T13:27:44.242Z,1.55
2023-02-13T13:30:22.981Z,1.69
2023-02-13T13:32:59.038Z,1.77
2023-02-13T13:35:28.441Z,1.72
2023-02-13T13:38:10.161Z,1.62
2023-02-13T13:40:47.425Z,1.36
2023-02-13T13:43:30.041Z,1.45
2023-02-13T13:46:12.276Z,1.55
2023-02-13T13:49:07.649Z,1.64
2023-02-13T13:51:36.082Z,1.82
2023-02-13T13:54:34.912Z,1.87
2023-02-13T13:57:12.608Z,1.60
2023-02-13T14:00:27.184Z,1.55
2023-02-13T14:03:26.244Z,1.80
2023-02-13T14:06:09.437Z,1.61
2023-02-13T14:09:07.291Z,1.59
2023-02-13T14:11:46.958Z,1.63
2023-02-13T14:14:55.276Z,1.56
2023-02-13T14:17:54.700Z,1.68
2023-02-13T14:20:41.709Z,1.68
2023-02-13T14:23:38.649Z,1.71
2023-02-13T14:26:42.693Z,1.72
2023-02-13T14:29:34.063Z,1.75
2023-02-13T14:32:09.131Z,1.74
2023-02-13T14:34:40.759Z,1.68
2023-02-13T14:37:27.696Z,1.77
2023-02-13T14:40:34.618Z,1.76
2023-02-13T14:43:54.770Z,1.57
2023-02-13T14:46:38.126Z,1.54
2023-02-13T14:49:14.252Z,1.45
2023-02-13T14:51:50.540Z,1.53
2023-02-13T14:54:28.508Z,1.53
2023-02-13T14:57:20.161Z,1.49
2023-02-13T14:59:54.900Z,1.43
2023-02-13T15:02:25.886Z,1.45
2023-02-13T15:05:01.140Z,1.51
2023-02-13T15:07:35.656Z,1.49
2023-02-13T15:10:28.306Z,1.38
2023-02-13T15:12:59.474Z,1.36
2023-02-13T15:15:37.266Z,1.39
2023-02-13T15:18:12.952Z,1.52
2023-02-13T15:20:44.901Z,1.47
2023-02-13T15:23:23.748Z,1.48
2023-02-13T15:26:00.863Z,1.49
2023-02-13T15:28:30.851Z,1.47
2023-02-13T15:31:03.969Z,1.41
2023-02-13T15:33:44.187Z,1.41
2023-02-13T15:36:20.675Z,1.52
2023-02-13T15:38:49.745Z,1.55
2023-02-13T15:41:24.582Z,1.46
2023-02-13T15:43:58.284Z,1.45
2023-02-13T15:46:31.236Z,1.45
2023-02-13T15:49:06.036Z,1.52
2023-02-13T15:51:35.153Z,1.47
2023-02-13T15:54:06.658Z,1.44
2023-02-13T15:56:36.459Z,1.43
2023-02-13T15:59:05.441Z,1.47
2023-02-13T16:01:35.999Z,1.53
2023-02-13T16:04:10.073Z,1.54
2023-02-13T16:06:38.744Z,1.51
2023-02-13T16:09:07.784Z,1.47
2023-02-13T16:11:38.832Z,1.46
2023-02-13T16:14:17.298Z,1.46
2023-02-13T16:16:53.859Z,1.42
2023-02-13T16:19:34.744Z,1.41
2023-02-13T16:22:16.993Z,1.33
2023-02-13T16:24:52.061Z,1.36
2023-02-13T16:27:25.338Z,1.48
2023-02-13T16:29:59.840Z,1.41
2023-02-13T16:32:33.370Z,1.44
2023-02-13T16:35:18.908Z,1.45
2023-02-13T16:37:57.316Z,1.43
2023-02-13T16:40:42.907Z,1.39
2023-02-13T16:43:46.022Z,1.38
2023-02-13T16:46:35.073Z,1.40
2023-02-13T16:49:18.963Z,1.50
2023-02-13T16:51:56.765Z,1.53
2023-02-13T16:54:32.725Z,1.55
2023-02-13T16:57:06.801Z,1.57
2023-02-13T16:59:53.725Z,1.64
2023-02-13T17:02:25.685Z,1.62
2023-02-13T17:04:59.817Z,1.60
2023-02-13T17:07:30.878Z,1.56
2023-02-13T17:10:05.829Z,1.57
2023-02-13T17:12:39.414Z,1.60
2023-02-13T17:15:13.733Z,1.60
2023-02-13T17:17:42.350Z,1.62
2023-02-13T17:20:17.891Z,1.64
2023-02-13T17:22:49.320Z,1.61
2023-02-13T17:25:22.580Z,1.67
2023-02-13T17:27:52.065Z,1.68
2023-02-13T17:30:24.420Z,1.70
2023-02-13T17:32:59.935Z,1.68
2023-02-13T17:35:31.771Z,1.69
2023-02-13T17:38:00.544Z,1.64
2023-02-13T17:40:31.911Z,1.55
2023-02-13T17:43:00.995Z,1.58
2023-02-13T17:45:34.410Z,1.64
2023-02-13T17:48:02.832Z,1.66
2023-02-13T17:50:35.106Z,1.69
2023-02-13T17:53:06.690Z,1.67
2023-02-13T17:55:36.890Z,1.68
2023-02-13T17:58:05.108Z,1.64
2023-02-13T18:00:35.578Z,1.67
2023-02-13T18:03:04.235Z,1.72
2023-02-13T18:05:34.576Z,1.71
2023-02-13T18:08:03.209Z,1.71
2023-02-13T18:10:34.173Z,1.71
2023-02-13T18:13:05.086Z,1.70
2023-02-13T18:15:34.705Z,1.70
2023-02-13T18:18:03.412Z,1.72
2023-02-13T18:20:33.404Z,1.74
2023-02-13T18:23:01.937Z,1.72
2023-02-13T18:25:30.355Z,1.70
2023-02-13T18:27:58.710Z,1.67
2023-02-13T18:30:27.107Z,1.70
2023-02-13T18:32:58.952Z,1.70
2023-02-13T18:35:27.705Z,1.69
2023-02-13T18:37:57.459Z,1.65
2023-02-13T18:40:25.728Z,1.67
2023-02-13T18:42:54.054Z,1.72
2023-02-13T18:45:22.805Z,1.78
2023-02-13T18:47:51.283Z,1.73
2023-02-13T18:50:19.982Z,1.69
2023-02-13T18:52:48.456Z,1.71
2023-02-13T18:55:18.288Z,1.74
2023-02-13T18:57:48.039Z,1.72
2023-02-13T19:00:18.793Z,1.82
2023-02-13T19:02:47.212Z,1.71
2023-02-13T19:05:15.613Z,1.65
2023-02-13T19:07:44.030Z,1.67
2023-02-13T19:10:14.814Z,1.64
2023-02-13T19:12:44.495Z,1.73
2023-02-13T19:15:13.095Z,1.69
2023-02-13T19:17:41.420Z,1.66
2023-02-13T19:20:11.135Z,1.67
2023-02-13T19:22:40.594Z,1.65
2023-02-13T19:25:09.408Z,1.63
2023-02-13T19:27:39.144Z,1.63
2023-02-13T19:30:12.342Z,1.63
2023-02-13T19:32:41.511Z,1.61
2023-02-13T19:35:10.234Z,1.61
2023-02-13T19:37:44.300Z,1.64
2023-02-13T19:40:14.271Z,1.70
2023-02-13T19:42:42.603Z,1.69
2023-02-13T19:45:12.711Z,1.66
2023-02-13T19:47:40.984Z,1.62
2023-02-13T19:50:10.354Z,1.58
2023-02-13T19:52:39.081Z,1.59
2023-02-13T19:55:08.296Z,1.59
2023-02-13T19:57:36.878Z,1.60
2023-02-13T20:00:07.727Z,1.63
2023-02-13T20:02:42.216Z,1.63
2023-02-13T20:05:11.329Z,1.56
2023-02-13T20:07:39.779Z,1.56
2023-02-13T20:10:10.902Z,1.58
2023-02-13T20:12:39.632Z,1.57
2023-02-13T20:15:08.861Z,1.57
2023-02-13T20:17:39.129Z,1.54
2023-02-13T20:20:10.664Z,1.49
2023-02-13T20:22:39.217Z,1.49
2023-02-13T20:25:07.984Z,1.53
2023-02-13T20:27:42.111Z,1.46
2023-02-13T20:30:15.947Z,1.42
2023-02-13T20:32:44.665Z,1.48
2023-02-13T20:35:14.498Z,1.46
2023-02-13T20:37:43.305Z,1.43
2023-02-13T20:40:12.853Z,1.36
2023-02-13T20:42:41.666Z,1.39
2023-02-13T20:45:10.998Z,1.38
2023-02-13T20:47:40.476Z,1.36
2023-02-13T20:50:10.258Z,1.36
2023-02-13T20:52:40.082Z,1.36
2023-02-13T20:55:09.375Z,1.40
2023-02-13T20:57:38.392Z,1.38
2023-02-13T21:00:12.090Z,1.37
2023-02-13T21:02:40.762Z,1.32
2023-02-13T21:05:09.655Z,1.28
2023-02-13T21:07:39.392Z,1.33
2023-02-13T21:10:08.875Z,1.29
2023-02-13T21:12:37.545Z,1.30
2023-02-13T21:15:06.501Z,1.34
2023-02-13T21:17:34.753Z,1.30
2023-02-13T21:20:03.117Z,1.19
2023-02-13T21:22:31.743Z,1.18
2023-02-13T21:25:01.408Z,1.15
2023-02-13T21:27:30.367Z,1.15
2023-02-13T21:29:59.148Z,1.18
2023-02-13T21:32:27.780Z,1.12
2023-02-13T21:34:56.735Z,1.18
2023-02-13T21:37:25.287Z,1.12
2023-02-13T21:39:53.978Z,1.00
2023-02-13T21:42:23.622Z,1.03
2023-02-13T21:44:52.296Z,1.03
2023-02-13T21:47:20.865Z,0.92
2023-02-13T21:49:49.788Z,0.93
2023-02-13T21:52:18.408Z,0.98
2023-02-13T21:54:47.038Z,0.99
2023-02-13T21:57:15.337Z,0.99
2023-02-13T21:59:45.132Z,0.94
2023-02-13T22:02:13.771Z,0.96
2023-02-13T22:04:42.837Z,1.02
2023-02-13T22:07:11.117Z,1.06
2023-02-13T22:09:39.513Z,0.99
2023-02-13T22:12:07.989Z,0.89
2023-02-13T22:14:36.264Z,0.91
2023-02-13T22:17:05.946Z,0.94
2023-02-13T22:19:34.621Z,0.93
2023-02-13T22:22:02.911Z,0.95
2023-02-13T22:24:31.134Z,1.02
2023-02-13T22:26:59.689Z,1.05
2023-02-13T22:29:27.974Z,1.03
2023-02-13T22:31:56.699Z,0.99
2023-02-13T22:34:26.513Z,1.03
2023-02-13T22:36:55.674Z,1.06
2023-02-13T22:39:24.379Z,1.06
2023-02-13T22:41:56.277Z,1.04
2023-02-13T22:44:25.142Z,1.04
2023-02-13T22:46:53.387Z,1.08
2023-02-13T22:49:22.544Z,1.05
2023-02-13T22:51:52.494Z,1.03
2023-02-13T22:54:20.917Z,1.00
2023-02-13T22:56:49.542Z,1.03
2023-02-13T22:59:19.212Z,0.96
2023-02-13T23:01:47.841Z,0.95
2023-02-13T23:04:16.894Z,0.94
2023-02-13T23:06:45.802Z,1.00
2023-02-13T23:09:15.966Z,1.03
2023-02-13T23:12:02.057Z,1.10
2023-02-13T23:14:30.660Z,1.04
2023-02-13T23:17:17.136Z,1.04
2023-02-13T23:19:45.883Z,1.01
2023-02-13T23:22:16.283Z,1.05
2023-02-13T23:24:46.226Z,1.03
2023-02-13T23:27:15.893Z,1.12
2023-02-13T23:29:44.476Z,1.04
2023-02-13T23:32:13.546Z,1.04
2023-02-13T23:34:41.839Z,0.99
2023-02-13T23:37:10.373Z,0.98
2023-02-13T23:39:39.535Z,1.02
2023-02-13T23:42:09.244Z,0.99
2023-02-13T23:44:37.846Z,0.95
2023-02-13T23:47:06.487Z,0.96
2023-02-13T23:49:35.103Z,0.90
2023-02-13T23:52:03.508Z,0.98
2023-02-13T23:54:31.932Z,0.91
2023-02-13T23:57:03.447Z,0.89
2023-02-13T23:59:33.498Z,0.89
